createdAt,value
2017-03-05T00:00:58.128Z,99.99
2017-03-05T00:01:58.108Z,99.99
2017-03-05T00:02:58.111Z,99.99
2017-03-05T00:03:58.095Z,99.99
2017-03-05T00:04:58.080Z,99.99
2017-03-05T00:05:57.678Z,99.99
2017-03-05T00:06:58.055Z,99.99
2017-03-05T00:07:58.044Z,99.99
2017-03-05T00:08:58.034Z,99.99
2017-03-05T00:09:58.035Z,99.99
2017-03-05T00:10:58.016Z,99.99
2017-03-05T00:11:58.014Z,99.99
2017-03-05T00:12:57.992Z,99.99
2017-03-05T00:13:57.981Z,99.99
2017-03-05T00:14:57.968Z,99.99
2017-03-05T00:15:57.960Z,99.99
2017-03-05T00:16:57.953Z,99.99
2017-03-05T00:17:57.940Z,99.99
2017-03-05T00:18:57.935Z,99.99
2017-03-05T00:19:57.920Z,99.99
2017-03-05T00:20:57.905Z,99.99
2017-03-05T00:21:57.908Z,99.99
2017-03-05T00:22:57.880Z,99.99
2017-03-05T00:23:57.883Z,99.99
2017-03-05T00:24:57.860Z,99.99
2017-03-05T00:25:57.856Z,99.99
2017-03-05T00:26:57.841Z,99.99
2017-03-05T00:27:57.825Z,99.99
2017-03-05T00:28:57.829Z,99.99
2017-03-05T00:29:57.803Z,99.99
2017-03-05T00:30:57.794Z,99.99
2017-03-05T00:31:57.795Z,99.99
2017-03-05T00:32:57.769Z,99.99
2017-03-05T00:33:57.757Z,99.99
2017-03-05T00:34:57.757Z,99.99
2017-03-05T00:35:57.739Z,99.99
2017-03-05T00:36:57.724Z,99.99
2017-03-05T00:37:57.727Z,99.99
2017-03-05T00:38:57.699Z,99.99
2017-03-05T00:39:57.688Z,99.99
2017-03-05T00:40:57.692Z,99.99
2017-03-05T00:41:57.670Z,99.99
2017-03-05T00:42:57.659Z,99.99
2017-03-05T00:43:57.662Z,99.99
2017-03-05T00:44:57.632Z,99.99
2017-03-05T00:45:57.624Z,99.99
2017-03-05T00:46:57.620Z,99.99
2017-03-05T00:47:57.598Z,99.99
2017-03-05T00:48:57.592Z,99.99
2017-03-05T00:49:57.578Z,99.99
2017-03-05T00:50:57.578Z,99.99
2017-03-05T00:51:57.563Z,99.99
2017-03-05T00:52:57.544Z,99.99
2017-03-05T00:53:57.542Z,99.99
2017-03-05T00:54:57.123Z,99.99
2017-03-05T00:55:57.516Z,99.99
2017-03-05T00:56:57.499Z,99.99
2017-03-05T00:57:57.486Z,99.99
2017-03-05T00:58:57.475Z,99.99
2017-03-05T00:59:57.505Z,99.99
2017-03-05T01:00:57.450Z,99.99
2017-03-05T01:01:57.447Z,99.99
2017-03-05T01:02:57.446Z,99.99
2017-03-05T01:03:57.424Z,99.99
2017-03-05T01:04:57.410Z,99.99
2017-03-05T01:05:57.422Z,99.99
2017-03-05T01:06:57.383Z,99.99
2017-03-05T01:07:57.371Z,99.99
2017-03-05T01:08:57.360Z,99.99
2017-03-05T01:09:56.952Z,99.99
2017-03-05T01:10:57.344Z,99.99
2017-03-05T01:11:57.325Z,99.99
2017-03-05T01:12:57.341Z,99.99
2017-03-05T01:13:57.305Z,99.99
2017-03-05T01:14:57.290Z,99.99
2017-03-05T01:15:57.278Z,99.99
2017-03-05T01:16:57.277Z,99.99
2017-03-05T01:17:56.858Z,99.99
2017-03-05T01:18:57.247Z,99.99
2017-03-05T01:19:57.243Z,99.99
2017-03-05T01:20:57.234Z,99.99
2017-03-05T01:21:57.210Z,99.99
2017-03-05T01:22:57.202Z,99.99
2017-03-05T01:23:57.187Z,99.99
2017-03-05T01:24:57.179Z,99.99
2017-03-05T01:25:57.166Z,99.99
2017-03-05T01:26:57.156Z,99.99
2017-03-05T01:27:57.141Z,99.99
2017-03-05T01:28:57.133Z,99.99
2017-03-05T01:29:57.119Z,99.99
2017-03-05T01:30:57.107Z,99.99
2017-03-05T01:31:57.093Z,99.99
2017-03-05T01:32:57.083Z,99.99
2017-03-05T01:33:57.070Z,99.99
2017-03-05T01:34:57.068Z,99.99
2017-03-05T01:35:57.053Z,99.99
2017-03-05T01:36:56.639Z,99.99
2017-03-05T01:37:57.024Z,99.99
2017-03-05T01:38:56.624Z,99.99
2017-03-05T01:39:56.614Z,99.99
2017-03-05T01:40:56.986Z,99.99
2017-03-05T01:41:56.983Z,99.99
2017-03-05T01:42:56.967Z,99.99
2017-03-05T01:43:56.955Z,99.99
2017-03-05T01:44:56.943Z,99.99
2017-03-05T01:45:56.930Z,99.99
2017-03-05T01:46:56.923Z,99.99
2017-03-05T01:47:56.905Z,99.99
2017-03-05T01:48:56.899Z,99.99
2017-03-05T01:49:56.882Z,99.99
2017-03-05T01:50:56.868Z,99.99
2017-03-05T01:51:56.860Z,99.99
2017-03-05T01:52:56.844Z,99.99
2017-03-05T01:53:56.843Z,99.99
2017-03-05T01:54:56.823Z,99.99
2017-03-05T01:55:56.811Z,99.99
2017-03-05T01:56:56.818Z,99.99
2017-03-05T01:57:56.793Z,99.99
2017-03-05T01:58:56.783Z,99.99
2017-03-05T01:59:56.772Z,99.99
2017-03-05T02:00:56.766Z,99.99
2017-03-05T02:01:56.739Z,99.99
2017-03-05T02:02:56.728Z,99.99
2017-03-05T02:03:56.710Z,99.99
2017-03-05T02:04:56.701Z,99.99
2017-03-05T02:05:56.700Z,99.99
2017-03-05T02:06:56.674Z,99.99
2017-03-05T02:07:56.672Z,99.99
2017-03-05T02:08:56.666Z,99.99
2017-03-05T02:09:56.637Z,99.99
2017-03-05T02:10:56.626Z,99.99
2017-03-05T02:11:56.613Z,99.99
2017-03-05T02:12:56.606Z,99.99
2017-03-05T02:13:56.599Z,99.99
2017-03-05T02:14:56.579Z,99.99
2017-03-05T02:15:56.579Z,99.99
2017-03-05T02:16:56.554Z,99.99
2017-03-05T02:17:56.547Z,99.99
2017-03-05T02:18:56.528Z,99.99
2017-03-05T02:19:56.529Z,99.99
2017-03-05T02:20:56.506Z,99.99
2017-03-05T02:21:56.496Z,99.99
2017-03-05T02:22:56.489Z,99.99
2017-03-05T02:23:56.484Z,99.99
2017-03-05T02:24:56.463Z,99.99
2017-03-05T02:25:56.460Z,99.99
2017-03-05T02:26:56.432Z,99.99
2017-03-05T02:27:56.423Z,99.99
2017-03-05T02:28:56.409Z,99.99
2017-03-05T02:29:56.404Z,99.99
2017-03-05T02:30:56.389Z,99.99
2017-03-05T02:31:56.387Z,99.99
2017-03-05T02:32:56.361Z,99.99
2017-03-05T02:33:56.352Z,99.99
2017-03-05T02:34:56.351Z,99.99
2017-03-05T02:35:56.341Z,99.99
2017-03-05T02:36:56.313Z,99.99
2017-03-05T02:37:56.303Z,99.99
2017-03-05T02:39:04.648Z,99.99
2017-03-05T02:39:56.287Z,99.99
2017-03-05T02:40:56.263Z,99.99
2017-03-05T02:41:56.255Z,99.99
2017-03-05T02:42:56.244Z,99.99
2017-03-05T02:43:56.229Z,99.99
2017-03-05T02:44:56.217Z,99.99
2017-03-05T02:45:56.211Z,99.99
2017-03-05T02:46:56.193Z,99.99
2017-03-05T02:47:56.190Z,99.99
2017-03-05T02:48:56.168Z,99.99
2017-03-05T02:49:56.156Z,99.99
2017-03-05T02:50:56.157Z,99.99
2017-03-05T02:51:56.144Z,99.99
2017-03-05T02:52:56.119Z,99.99
2017-03-05T02:53:56.121Z,99.99
2017-03-05T02:54:56.096Z,99.99
2017-03-05T02:55:56.083Z,99.99
2017-03-05T02:56:56.074Z,99.99
2017-03-05T02:57:56.066Z,99.99
2017-03-05T02:58:56.050Z,99.99
2017-03-05T02:59:56.045Z,99.99
2017-03-05T03:00:56.036Z,99.99
2017-03-05T03:01:56.012Z,99.99
2017-03-05T03:02:56.000Z,99.99
2017-03-05T03:03:55.987Z,99.99
2017-03-05T03:04:55.980Z,99.99
2017-03-05T03:05:55.970Z,99.99
2017-03-05T03:06:55.951Z,99.99
2017-03-05T03:07:55.939Z,99.99
2017-03-05T03:08:55.927Z,99.99
2017-03-05T03:09:55.918Z,99.99
2017-03-05T03:10:55.904Z,99.99
2017-03-05T03:11:55.895Z,99.99
2017-03-05T03:12:55.880Z,99.99
2017-03-05T03:13:55.868Z,99.99
2017-03-05T03:14:55.854Z,99.99
2017-03-05T03:15:55.844Z,99.99
2017-03-05T03:16:55.840Z,99.99
2017-03-05T03:17:55.821Z,99.99
2017-03-05T03:18:55.805Z,99.99
2017-03-05T03:19:55.803Z,99.99
2017-03-05T03:20:55.781Z,99.99
2017-03-05T03:21:55.784Z,99.99
2017-03-05T03:22:55.766Z,99.99
2017-03-05T03:23:55.747Z,99.99
2017-03-05T03:24:55.734Z,99.99
2017-03-05T03:25:55.723Z,99.99
2017-03-05T03:26:55.713Z,99.99
2017-03-05T03:27:55.745Z,99.99
2017-03-05T03:28:55.696Z,99.99
2017-03-05T03:29:55.680Z,99.99
2017-03-05T03:30:55.660Z,99.99
2017-03-05T03:31:55.645Z,99.99
2017-03-05T03:32:55.635Z,99.99
2017-03-05T03:33:55.625Z,99.99
2017-03-05T03:34:55.620Z,99.99
2017-03-05T03:35:55.625Z,99.99
2017-03-05T03:36:55.587Z,99.99
2017-03-05T03:37:55.593Z,99.99
2017-03-05T03:38:55.563Z,99.99
2017-03-05T03:39:55.555Z,99.99
2017-03-05T03:40:55.540Z,99.99
2017-03-05T03:41:55.524Z,99.99
2017-03-05T03:42:55.514Z,99.99
2017-03-05T03:43:55.523Z,99.99
2017-03-05T03:44:55.491Z,99.99
2017-03-05T03:45:55.482Z,99.99
2017-03-05T03:46:55.466Z,99.99
2017-03-05T03:47:55.454Z,99.99
2017-03-05T03:48:55.442Z,99.99
2017-03-05T03:49:55.431Z,99.99
2017-03-05T03:50:55.426Z,99.99
2017-03-05T03:51:55.403Z,99.99
2017-03-05T03:52:55.392Z,99.99
2017-03-05T03:53:55.380Z,99.99
2017-03-05T03:54:55.366Z,99.99
2017-03-05T03:55:55.357Z,99.99
2017-03-05T03:56:55.342Z,99.99
2017-03-05T03:57:55.340Z,99.99
2017-03-05T03:58:55.319Z,99.99
2017-03-05T03:59:55.310Z,99.99
2017-03-05T04:00:55.293Z,99.99
2017-03-05T04:01:55.281Z,99.99
2017-03-05T04:02:55.271Z,99.99
2017-03-05T04:03:55.258Z,99.99
2017-03-05T04:04:55.257Z,99.99
2017-03-05T04:05:55.232Z,99.99
2017-03-05T04:06:55.231Z,99.99
2017-03-05T04:07:54.813Z,99.99
2017-03-05T04:08:55.200Z,99.99
2017-03-05T04:09:55.185Z,99.99
2017-03-05T04:10:55.200Z,99.99
2017-03-05T04:11:55.158Z,99.99
2017-03-05T04:12:55.149Z,99.99
2017-03-05T04:13:55.137Z,99.99
2017-03-05T04:14:55.124Z,99.99
2017-03-05T04:15:55.115Z,99.99
2017-03-05T04:16:55.100Z,99.99
2017-03-05T04:17:55.090Z,99.99
2017-03-05T04:18:55.084Z,99.99
2017-03-05T04:19:54.669Z,99.99
2017-03-05T04:20:55.055Z,99.99
2017-03-05T04:21:55.053Z,99.99
2017-03-05T04:22:55.025Z,99.99
2017-03-05T04:23:55.019Z,99.99
2017-03-05T04:24:55.001Z,99.99
2017-03-05T04:25:55.003Z,99.99
2017-03-05T04:26:54.974Z,99.99
2017-03-05T04:27:54.965Z,99.99
2017-03-05T04:28:54.970Z,99.99
2017-03-05T04:29:54.938Z,99.99
2017-03-05T04:30:54.928Z,99.99
2017-03-05T04:31:54.916Z,99.99
2017-03-05T04:32:54.904Z,99.99
2017-03-05T04:33:54.908Z,99.99
2017-03-05T04:34:54.497Z,99.99
2017-03-05T04:35:54.869Z,99.99
2017-03-05T04:36:54.872Z,99.99
2017-03-05T04:37:54.844Z,99.99
2017-03-05T04:38:54.828Z,99.99
2017-03-05T04:39:54.851Z,99.99
2017-03-05T04:40:54.810Z,99.99
2017-03-05T04:41:54.798Z,99.99
2017-03-05T04:42:54.790Z,99.99
2017-03-05T04:43:54.766Z,99.99
2017-03-05T04:44:54.753Z,99.99
2017-03-05T04:45:54.757Z,99.99
2017-03-05T04:46:54.726Z,99.99
2017-03-05T04:47:54.713Z,99.99
2017-03-05T04:48:54.708Z,99.99
2017-03-05T04:49:54.691Z,99.99
2017-03-05T04:50:54.682Z,99.99
2017-03-05T04:51:54.669Z,99.99
2017-03-05T04:52:54.652Z,99.99
2017-03-05T04:53:54.640Z,99.99
2017-03-05T04:54:54.627Z,99.99
2017-03-05T04:55:54.615Z,99.99
2017-03-05T04:56:54.604Z,99.99
2017-03-05T04:57:54.592Z,99.99
2017-03-05T04:58:54.582Z,99.99
2017-03-05T04:59:54.563Z,99.99
2017-03-05T05:00:54.556Z,99.99
2017-03-05T05:01:54.551Z,99.99
2017-03-05T05:02:54.526Z,99.99
2017-03-05T05:03:54.524Z,99.99
2017-03-05T05:04:54.503Z,99.99
2017-03-05T05:05:54.098Z,99.99
2017-03-05T05:06:54.483Z,99.99
2017-03-05T05:07:54.462Z,99.99
2017-03-05T05:08:54.461Z,99.99
2017-03-05T05:09:54.437Z,99.99
2017-03-05T05:10:54.426Z,99.99
2017-03-05T05:11:54.418Z,99.99
2017-03-05T05:12:54.401Z,99.99
2017-03-05T05:13:54.388Z,99.99
2017-03-05T05:14:54.373Z,99.99
2017-03-05T05:15:54.362Z,99.99
2017-03-05T05:16:54.352Z,99.99
2017-03-05T05:17:54.337Z,99.99
2017-03-05T05:18:54.322Z,99.99
2017-03-05T05:19:54.309Z,99.99
2017-03-05T05:20:54.296Z,99.99
2017-03-05T05:21:54.285Z,99.99
2017-03-05T05:22:54.271Z,99.99
2017-03-05T05:23:54.270Z,99.99
2017-03-05T05:24:54.244Z,99.99
2017-03-05T05:25:54.243Z,99.99
2017-03-05T05:26:54.223Z,99.99
2017-03-05T05:27:54.215Z,99.99
2017-03-05T05:28:54.196Z,99.99
2017-03-05T05:29:54.181Z,99.99
2017-03-05T05:30:54.170Z,99.99
2017-03-05T05:31:54.154Z,99.99
2017-03-05T05:32:54.145Z,99.99
2017-03-05T05:33:54.141Z,99.99
2017-03-05T05:34:54.115Z,99.99
2017-03-05T05:35:54.105Z,99.99
2017-03-05T05:36:54.086Z,99.99
2017-03-05T05:37:54.085Z,99.99
2017-03-05T05:38:54.063Z,99.99
2017-03-05T05:39:54.049Z,99.99
2017-03-05T05:40:54.040Z,99.99
2017-03-05T05:41:54.037Z,99.99
2017-03-05T05:42:54.009Z,99.99
2017-03-05T05:43:53.995Z,99.99
2017-03-05T05:44:54.008Z,99.99
2017-03-05T05:45:53.965Z,99.99
2017-03-05T05:46:53.956Z,99.99
2017-03-05T05:47:53.939Z,99.99
2017-03-05T05:48:53.934Z,99.99
2017-03-05T05:49:53.917Z,99.99
2017-03-05T05:50:53.915Z,99.99
2017-03-05T05:51:53.887Z,99.99
2017-03-05T05:52:53.877Z,99.99
2017-03-05T05:53:53.862Z,99.99
2017-03-05T05:54:53.861Z,99.99
2017-03-05T05:55:53.834Z,99.99
2017-03-05T05:56:53.821Z,99.99
2017-03-05T05:57:53.809Z,99.99
2017-03-05T05:58:53.804Z,99.99
2017-03-05T05:59:53.783Z,99.99
2017-03-05T06:00:53.775Z,99.99
2017-03-05T06:01:53.762Z,99.99
2017-03-05T06:02:53.741Z,99.99
2017-03-05T06:03:53.726Z,99.99
2017-03-05T06:04:53.744Z,99.99
2017-03-05T06:05:53.703Z,99.99
2017-03-05T06:06:53.688Z,99.99
2017-03-05T06:07:53.677Z,99.99
2017-03-05T06:08:53.667Z,99.99
2017-03-05T06:09:53.655Z,99.99
2017-03-05T06:10:53.632Z,99.99
2017-03-05T06:11:53.629Z,99.99
2017-03-05T06:12:53.618Z,99.99
2017-03-05T06:13:53.595Z,99.99
2017-03-05T06:14:53.183Z,99.99
2017-03-05T06:15:53.573Z,99.99
2017-03-05T06:16:53.554Z,99.99
2017-03-05T06:17:53.538Z,99.99
2017-03-05T06:18:53.527Z,99.99
2017-03-05T06:19:53.513Z,99.99
2017-03-05T06:20:53.502Z,99.99
2017-03-05T06:21:53.495Z,99.99
2017-03-05T06:22:53.473Z,99.99
2017-03-05T06:23:53.473Z,99.99
2017-03-05T06:24:53.449Z,99.99
2017-03-05T06:25:53.446Z,99.99
2017-03-05T06:26:53.433Z,99.99
2017-03-05T06:27:53.009Z,99.99
2017-03-05T06:28:53.396Z,99.99
2017-03-05T06:29:53.380Z,99.99
2017-03-05T06:30:53.365Z,99.99
2017-03-05T06:31:53.367Z,99.99
2017-03-05T06:32:53.354Z,99.99
2017-03-05T06:33:53.340Z,99.99
2017-03-05T06:34:53.315Z,99.99
2017-03-05T06:35:53.299Z,99.99
2017-03-05T06:36:53.286Z,99.99
2017-03-05T06:37:53.274Z,99.99
2017-03-05T06:38:53.295Z,99.99
2017-03-05T06:39:53.247Z,99.99
2017-03-05T06:40:53.234Z,99.99
2017-03-05T06:41:53.219Z,99.99
2017-03-05T06:42:53.202Z,99.99
2017-03-05T06:43:53.191Z,99.99
2017-03-05T06:44:52.789Z,99.99
2017-03-05T06:45:53.169Z,99.99
2017-03-05T06:46:53.157Z,99.99
2017-03-05T06:47:53.138Z,99.99
2017-03-05T06:48:53.138Z,99.99
2017-03-05T06:49:53.111Z,99.99
2017-03-05T06:50:53.103Z,99.99
2017-03-05T06:51:53.086Z,99.99
2017-03-05T06:52:53.078Z,99.99
2017-03-05T06:53:53.062Z,99.99
2017-03-05T06:54:53.050Z,99.99
2017-03-05T06:55:53.044Z,99.99
2017-03-05T06:56:53.020Z,99.99
2017-03-05T06:57:53.012Z,99.99
2017-03-05T06:58:53.008Z,99.99
2017-03-05T06:59:52.990Z,99.99
2017-03-05T07:00:52.974Z,99.99
2017-03-05T07:01:52.966Z,99.99
2017-03-05T07:02:52.945Z,99.99
2017-03-05T07:03:52.932Z,99.99
2017-03-05T07:04:52.919Z,99.99
2017-03-05T07:05:52.928Z,99.99
2017-03-05T07:06:52.894Z,99.99
2017-03-05T07:07:52.508Z,99.99
2017-03-05T07:08:52.867Z,99.99
2017-03-05T07:09:52.855Z,99.99
2017-03-05T07:10:52.853Z,99.99
2017-03-05T07:11:52.835Z,99.99
2017-03-05T07:12:52.816Z,99.99
2017-03-05T07:13:52.812Z,99.99
2017-03-05T07:14:52.790Z,99.99
2017-03-05T07:15:52.782Z,99.99
2017-03-05T07:16:52.772Z,99.99
2017-03-05T07:17:52.752Z,99.99
2017-03-05T07:18:52.740Z,99.99
2017-03-05T07:19:52.727Z,99.99
2017-03-05T07:20:52.714Z,99.99
2017-03-05T07:21:52.708Z,99.99
2017-03-05T07:22:52.699Z,99.99
2017-03-05T07:23:52.692Z,99.99
2017-03-05T07:24:52.665Z,99.99
2017-03-05T07:25:52.651Z,99.99
2017-03-05T07:26:52.648Z,99.99
2017-03-05T07:27:52.625Z,99.99
2017-03-05T07:28:52.614Z,99.99
2017-03-05T07:29:52.600Z,99.99
2017-03-05T07:30:52.590Z,99.99
2017-03-05T07:31:52.573Z,99.99
2017-03-05T07:32:52.562Z,99.99
2017-03-05T07:33:52.553Z,99.99
2017-03-05T07:34:52.536Z,99.99
2017-03-05T07:35:52.524Z,99.99
2017-03-05T07:36:52.509Z,99.99
2017-03-05T07:37:52.500Z,99.99
2017-03-05T07:38:52.486Z,99.99
2017-03-05T07:39:52.473Z,99.99
2017-03-05T07:40:52.483Z,99.99
2017-03-05T07:41:52.450Z,99.99
2017-03-05T07:42:52.438Z,99.99
2017-03-05T07:43:52.424Z,99.99
2017-03-05T07:44:52.411Z,99.99
2017-03-05T07:45:52.399Z,99.99
2017-03-05T07:46:52.388Z,99.99
2017-03-05T07:47:52.373Z,99.99
2017-03-05T07:48:52.366Z,99.99
2017-03-05T07:49:52.354Z,99.99
2017-03-05T07:50:52.336Z,99.99
2017-03-05T07:51:52.327Z,99.99
2017-03-05T07:52:52.313Z,99.99
2017-03-05T07:53:52.299Z,99.99
2017-03-05T07:54:52.302Z,99.99
2017-03-05T07:55:52.278Z,99.99
2017-03-05T07:56:52.261Z,99.99
2017-03-05T07:57:52.251Z,99.99
2017-03-05T07:58:52.238Z,99.99
2017-03-05T07:59:51.827Z,99.99
2017-03-05T08:00:52.217Z,99.99
2017-03-05T08:01:52.204Z,99.99
2017-03-05T08:02:52.191Z,99.99
2017-03-05T08:03:52.181Z,99.99
2017-03-05T08:04:52.169Z,99.99
2017-03-05T08:05:52.157Z,99.99
2017-03-05T08:06:52.142Z,99.99
2017-03-05T08:07:52.143Z,99.99
2017-03-05T08:08:51.723Z,99.99
2017-03-05T08:09:52.269Z,99.99
2017-03-05T08:10:52.112Z,99.99
2017-03-05T08:11:52.080Z,99.99
2017-03-05T08:12:52.147Z,99.99
2017-03-05T08:13:52.281Z,99.99
2017-03-05T08:14:52.047Z,99.99
2017-03-05T08:15:52.046Z,99.99
2017-03-05T08:16:52.023Z,99.99
2017-03-05T08:17:52.084Z,99.99
2017-03-05T08:18:52.419Z,99.99
2017-03-05T08:19:51.994Z,99.99
2017-03-05T08:20:51.983Z,99.99
2017-03-05T08:21:51.968Z,99.99
2017-03-05T08:22:52.112Z,99.99
2017-03-05T08:23:52.258Z,99.99
2017-03-05T08:24:51.929Z,99.99
2017-03-05T08:25:51.925Z,99.99
2017-03-05T08:26:51.920Z,99.99
2017-03-05T08:27:51.980Z,99.99
2017-03-05T08:28:51.678Z,99.99
2017-03-05T08:29:51.871Z,99.99
2017-03-05T08:30:51.464Z,99.99
2017-03-05T08:31:51.919Z,99.99
2017-03-05T08:32:51.846Z,99.99
2017-03-05T08:33:52.026Z,99.99
2017-03-05T08:34:51.819Z,99.99
2017-03-05T08:35:51.846Z,99.99
2017-03-05T08:36:51.966Z,99.99
2017-03-05T08:37:51.892Z,99.99
2017-03-05T08:38:51.937Z,99.99
2017-03-05T08:39:51.361Z,99.99
2017-03-05T08:40:51.824Z,99.99
2017-03-05T08:41:51.857Z,99.99
2017-03-05T08:42:51.878Z,99.99
2017-03-05T08:43:51.777Z,99.99
2017-03-05T08:44:51.761Z,99.99
2017-03-05T08:45:51.732Z,99.99
2017-03-05T08:46:51.856Z,99.99
2017-03-05T08:47:51.813Z,99.99
2017-03-05T08:48:51.722Z,99.99
2017-03-05T08:49:51.686Z,99.99
2017-03-05T08:50:51.251Z,99.99
2017-03-05T08:51:51.849Z,99.99
2017-03-05T08:52:51.757Z,99.99
2017-03-05T08:53:51.793Z,99.99
2017-03-05T08:54:51.596Z,99.99
2017-03-05T08:55:51.612Z,99.99
2017-03-05T08:56:51.686Z,99.99
2017-03-05T08:57:51.671Z,99.99
2017-03-05T08:58:51.977Z,99.99
2017-03-05T08:59:51.604Z,99.99
2017-03-05T09:00:51.528Z,99.99
2017-03-05T09:01:51.528Z,99.99
2017-03-05T09:02:51.121Z,99.99
2017-03-05T09:03:51.898Z,99.99
2017-03-05T09:04:51.524Z,99.99
2017-03-05T09:05:51.475Z,99.99
2017-03-05T09:06:51.481Z,99.99
2017-03-05T09:07:51.561Z,99.99
2017-03-05T09:08:51.503Z,99.99
2017-03-05T09:09:51.430Z,99.99
2017-03-05T09:10:51.626Z,99.99
2017-03-05T09:11:51.448Z,99.99
2017-03-05T09:12:51.400Z,99.99
2017-03-05T09:13:50.995Z,99.99
2017-03-05T09:14:51.380Z,99.99
2017-03-05T09:15:51.523Z,99.99
2017-03-05T09:16:51.358Z,99.99
2017-03-05T09:17:51.352Z,99.99
2017-03-05T09:18:51.461Z,99.99
2017-03-05T09:19:51.333Z,99.99
2017-03-05T09:20:51.390Z,99.99
2017-03-05T09:21:51.311Z,99.99
2017-03-05T09:22:50.910Z,99.99
2017-03-05T09:23:51.378Z,99.99
2017-03-05T09:24:51.296Z,99.99
2017-03-05T09:25:51.380Z,99.99
2017-03-05T09:26:51.265Z,98.93
2017-03-05T09:27:51.255Z,97.22
2017-03-05T09:28:51.248Z,96.5
2017-03-05T09:29:51.243Z,98.03
2017-03-05T09:30:51.491Z,99.99
2017-03-05T09:31:51.224Z,99.99
2017-03-05T09:32:51.222Z,99.99
2017-03-05T09:33:51.235Z,99.84
2017-03-05T09:34:51.200Z,99.36
2017-03-05T09:35:51.385Z,96.89
2017-03-05T09:36:51.167Z,97.74
2017-03-05T09:37:51.158Z,98.5
2017-03-05T09:38:51.155Z,96.31
2017-03-05T09:39:50.755Z,98.22
2017-03-05T09:40:51.359Z,97.45
2017-03-05T09:41:51.122Z,96.6
2017-03-05T09:42:51.114Z,94.89
2017-03-05T09:43:51.104Z,94.42
2017-03-05T09:44:51.094Z,94.03
2017-03-05T09:45:51.401Z,94.7
2017-03-05T09:46:51.237Z,94.79
2017-03-05T09:47:51.146Z,94.32
2017-03-05T09:48:51.062Z,94.03
2017-03-05T09:49:51.059Z,94.42
2017-03-05T09:50:51.085Z,94.32
2017-03-05T09:51:51.029Z,93.65
2017-03-05T09:52:51.315Z,92.51
2017-03-05T09:53:51.060Z,93.75
2017-03-05T09:54:51.028Z,94.89
2017-03-05T09:55:51.004Z,94.98
2017-03-05T09:56:50.583Z,95.84
2017-03-05T09:57:51.127Z,94.98
2017-03-05T09:58:51.137Z,94.7
2017-03-05T09:59:51.044Z,94.98
2017-03-05T10:00:50.939Z,94.98
2017-03-05T10:01:50.934Z,95.7
2017-03-05T10:02:51.040Z,98.74
2017-03-05T10:03:51.017Z,99.97
2017-03-05T10:04:51.077Z,99.78
2017-03-05T10:05:50.894Z,98.74
2017-03-05T10:06:50.907Z,98.64
2017-03-05T10:07:50.873Z,99.99
2017-03-05T10:08:50.863Z,99.99
2017-03-05T10:09:51.147Z,99.4
2017-03-05T10:10:50.979Z,99.21
2017-03-05T10:11:51.108Z,99.99
2017-03-05T10:12:50.830Z,99.99
2017-03-05T10:13:50.922Z,99.99
2017-03-05T10:14:50.804Z,99.99
2017-03-05T10:15:50.808Z,98.83
2017-03-05T10:16:50.799Z,96.93
2017-03-05T10:17:50.840Z,98.17
2017-03-05T10:18:50.659Z,96.36
2017-03-05T10:19:50.754Z,94.84
2017-03-05T10:20:50.847Z,93.89
2017-03-05T10:21:50.758Z,94.74
2017-03-05T10:22:50.724Z,96.08
2017-03-05T10:23:50.737Z,95.22
2017-03-05T10:24:50.739Z,96.45
2017-03-05T10:25:50.849Z,95.89
2017-03-05T10:26:50.683Z,94.93
2017-03-05T10:27:50.675Z,95.03
2017-03-05T10:28:50.668Z,93.41
2017-03-05T10:29:50.674Z,94.08
2017-03-05T10:30:50.747Z,94.56
2017-03-05T10:31:50.236Z,93.41
2017-03-05T10:32:50.826Z,91.99
2017-03-05T10:33:50.616Z,93.32
2017-03-05T10:34:50.623Z,96.65
2017-03-05T10:35:50.596Z,92.18
2017-03-05T10:36:50.630Z,91.04
2017-03-05T10:37:50.757Z,90.09
2017-03-05T10:38:50.833Z,89.9
2017-03-05T10:39:50.811Z,90.94
2017-03-05T10:40:50.553Z,89.04
2017-03-05T10:41:50.659Z,87.81
2017-03-05T10:42:50.533Z,89.9
2017-03-05T10:43:50.164Z,89.33
2017-03-05T10:44:50.503Z,85.62
2017-03-05T10:45:50.570Z,85.05
2017-03-05T10:46:50.672Z,85.53
2017-03-05T10:47:50.471Z,85.34
2017-03-05T10:48:50.583Z,83.95
2017-03-05T10:49:50.453Z,84.29
2017-03-05T10:50:50.679Z,83.82
2017-03-05T10:51:50.631Z,83.91
2017-03-05T10:52:50.422Z,84.01
2017-03-05T10:53:50.726Z,84.48
2017-03-05T10:54:50.404Z,85.05
2017-03-05T10:55:50.155Z,87.52
2017-03-05T10:56:50.384Z,87.43
2017-03-05T10:57:50.504Z,86.19
2017-03-05T10:58:50.428Z,87.71
2017-03-05T10:59:50.383Z,87.81
2017-03-05T11:00:50.409Z,86.57
2017-03-05T11:01:50.409Z,84.29
2017-03-05T11:02:50.327Z,83.34
2017-03-05T11:03:50.316Z,81.44
2017-03-05T11:04:50.301Z,78.21
2017-03-05T11:05:50.343Z,79.73
2017-03-05T11:06:50.460Z,80.11
2017-03-05T11:07:50.270Z,78.97
2017-03-05T11:08:50.260Z,78.3
2017-03-05T11:09:50.250Z,77.68
2017-03-05T11:10:49.847Z,78.63
2017-03-05T11:11:50.267Z,79.68
2017-03-05T11:12:50.221Z,79.3
2017-03-05T11:13:50.401Z,80.44
2017-03-05T11:14:50.201Z,78.53
2017-03-05T11:15:50.191Z,76.44
2017-03-05T11:16:50.233Z,77.01
2017-03-05T11:17:50.171Z,74.58
2017-03-05T11:18:50.263Z,75.34
2017-03-05T11:19:50.277Z,74.67
2017-03-05T11:20:50.142Z,73.34
2017-03-05T11:21:50.173Z,72.67
2017-03-05T11:22:50.122Z,74.01
2017-03-05T11:23:50.170Z,74.87
2017-03-05T11:24:50.168Z,71.44
2017-03-05T11:25:50.201Z,71.82
2017-03-05T11:26:50.221Z,71.34
2017-03-05T11:27:50.114Z,71.34
2017-03-05T11:28:50.088Z,71.91
2017-03-05T11:29:50.057Z,70.68
2017-03-05T11:30:50.057Z,69.63
2017-03-05T11:31:50.042Z,68.68
2017-03-05T11:32:50.043Z,68.68
2017-03-05T11:33:50.073Z,69.92
2017-03-05T11:34:50.089Z,70.1
2017-03-05T11:35:50.009Z,68.52
2017-03-05T11:36:50.006Z,68.62
2017-03-05T11:37:49.990Z,68.49
2017-03-05T11:38:49.988Z,68.81
2017-03-05T11:39:49.971Z,67.1
2017-03-05T11:40:49.961Z,67.1
2017-03-05T11:41:50.032Z,66.14
2017-03-05T11:42:49.945Z,65.95
2017-03-05T11:43:49.939Z,66.91
2017-03-05T11:44:49.926Z,64.9
2017-03-05T11:45:49.917Z,64.97
2017-03-05T11:46:49.910Z,64.31
2017-03-05T11:47:49.907Z,65.35
2017-03-05T11:48:49.894Z,66.97
2017-03-05T11:49:49.891Z,66.87
2017-03-05T11:50:49.908Z,67.07
2017-03-05T11:51:49.875Z,66.2
2017-03-05T11:52:49.454Z,66.87
2017-03-05T11:53:49.842Z,68.11
2017-03-05T11:54:49.840Z,68.3
2017-03-05T11:55:49.436Z,68.4
2017-03-05T11:56:49.419Z,69.25
2017-03-05T11:57:49.969Z,67.63
2017-03-05T11:58:49.818Z,68.77
2017-03-05T11:59:49.877Z,68.01
2017-03-05T12:00:49.780Z,68.3
2017-03-05T12:01:49.773Z,68.68
2017-03-05T12:02:49.772Z,68.01
2017-03-05T12:03:49.764Z,67.82
2017-03-05T12:04:49.748Z,68.01
2017-03-05T12:05:49.747Z,66.87
2017-03-05T12:06:49.854Z,67.76
2017-03-05T12:07:49.722Z,68.15
2017-03-05T12:08:49.722Z,63.67
2017-03-05T12:09:49.312Z,63.86
2017-03-05T12:10:49.700Z,61.96
2017-03-05T12:11:49.700Z,62.15
2017-03-05T12:12:49.276Z,62.05
2017-03-05T12:13:49.666Z,63.39
2017-03-05T12:14:49.264Z,62.72
2017-03-05T12:15:49.746Z,64.24
2017-03-05T12:16:49.655Z,62.72
2017-03-05T12:17:49.723Z,62.37
2017-03-05T12:18:49.631Z,62.05
2017-03-05T12:19:49.659Z,62.05
2017-03-05T12:20:49.609Z,62.05
2017-03-05T12:21:49.272Z,63.29
2017-03-05T12:22:49.361Z,62.91
2017-03-05T12:23:49.595Z,62.24
2017-03-05T12:24:49.578Z,62.34
2017-03-05T12:25:49.566Z,64.15
2017-03-05T12:26:49.654Z,63.67
2017-03-05T12:27:49.171Z,62.34
2017-03-05T12:28:49.538Z,62.72
2017-03-05T12:29:49.210Z,62.15
2017-03-05T12:30:49.126Z,62.53
2017-03-05T12:31:49.511Z,63.39
2017-03-05T12:32:49.108Z,63.29
2017-03-05T12:33:49.506Z,63.39
2017-03-05T12:34:49.489Z,63.57
2017-03-05T12:35:49.486Z,64.43
2017-03-05T12:36:49.484Z,65.92
2017-03-05T12:37:49.461Z,66.97
2017-03-05T12:38:49.452Z,67.1
2017-03-05T12:39:49.451Z,64.9
2017-03-05T12:40:49.435Z,64.15
2017-03-05T12:41:49.430Z,64.15
2017-03-05T12:42:49.419Z,64.56
2017-03-05T12:43:49.409Z,63.8
2017-03-05T12:44:49.426Z,63.99
2017-03-05T12:45:49.391Z,63.89
2017-03-05T12:46:49.385Z,61.22
2017-03-05T12:47:48.992Z,59.89
2017-03-05T12:48:49.378Z,60.46
2017-03-05T12:49:49.360Z,61.04
2017-03-05T12:50:49.352Z,61.51
2017-03-05T12:51:49.340Z,61.22
2017-03-05T12:52:49.337Z,60.94
2017-03-05T12:53:49.329Z,60.08